Time;durP1;ratioP1;P1;durP2;ratioP2;P2;SDS_P1;SDS_P2;PMS_P1;PMS_P2;Temp;Humidity;BMP_temperature;BMP_pressure;BME280_temperature;BME280_humidity;BME280_pressure;Samples;Min_cycle;Max_cycle;Signal;HPM_P1;HPM_P2
2023/03/04 00:01:58;;;;;;;;;;;;;;;4.05;83.39;100761.53;5033044;28;19955;-66
2023/03/04 00:04:24;;;;;;;;;;;;;;;4.02;83.35;100755.38;5027527;28;19967;-66
2023/03/04 00:06:49;;;;;;;;;;;;;;;3.99;83.55;100760.63;5032746;28;20388;-66
2023/03/04 00:09:14;;;;;;;;;;;;;;;3.99;84.34;100765.91;5033851;28;19940;-66
2023/03/04 00:11:39;;;;;;;;;;;;;;;3.96;84.65;100771.16;5033689;28;19921;-66
2023/03/04 00:14:05;;;;;;;;;;;;;;;3.92;84.22;100769.38;5026766;28;19949;-66
2023/03/04 00:16:30;;;;;;;;;;;;;;;3.90;84.40;100766.72;5019653;28;20008;-66
2023/03/04 00:18:56;;;;;;;;;;;;;;;3.84;84.15;100765.78;5036311;28;19924;-66
2023/03/04 00:21:21;;;;;;;;;;;;;;;3.81;84.94;100766.69;5033391;28;19925;-66
2023/03/04 00:23:46;;;;;;;;;;;;;;;3.76;85.02;100764.88;5034383;28;19917;-66
2023/03/04 00:26:12;;;;;;;;;;;;;;;3.69;84.96;100766.59;5033409;28;19917;-66
2023/03/04 00:28:38;;;;;;;;;;;;;;;3.70;84.90;100763.09;5036161;28;19924;-66
2023/03/04 00:31:04;;;;;;;;;;;;;;;3.69;85.05;100765.72;5035156;28;19984;-66
2023/03/04 00:33:29;;;;;;;;;;;;;;;3.66;85.16;100765.69;5036315;28;19959;-67
2023/03/04 00:35:55;;;;;;;;;;;;;;;3.65;85.26;100763.94;5035887;28;20317;-66
2023/03/04 00:38:20;;;;;;;;;;;;;;;3.61;85.38;100767.41;5036802;28;19917;-66
2023/03/04 00:40:45;;;;;;;;;;;;;;;3.55;85.25;100767.34;5036762;28;19921;-66
2023/03/04 00:43:10;;;;;;;;;;;;;;;3.55;85.38;100767.34;5039152;28;20277;-67
2023/03/04 00:45:36;;;;;;;;;;;;;;;3.49;85.44;100767.31;5019839;28;19971;-66
2023/03/04 00:48:01;;;;;;;;;;;;;;;3.48;85.74;100771.69;5028736;28;19925;-66
2023/03/04 00:50:26;;;;;;;;;;;;;;;3.47;86.33;100761.16;5033062;28;19917;-66
2023/03/04 00:52:52;;;;;;;;;;;;;;;3.43;85.98;100762.00;5033224;28;20008;-66
2023/03/04 00:55:17;;;;;;;;;;;;;;;3.40;86.40;100767.25;5016749;28;19995;-66
2023/03/04 00:57:42;;;;;;;;;;;;;;;3.35;86.46;100764.59;5034439;28;19917;-67
2023/03/04 01:00:08;;;;;;;;;;;;;;;3.28;85.94;100764.53;5034360;28;19913;-66
2023/03/04 01:02:33;;;;;;;;;;;;;;;3.27;86.31;100770.63;5034586;28;19916;-66
2023/03/04 01:04:58;;;;;;;;;;;;;;;3.23;87.08;100769.72;5032787;28;19921;-67
2023/03/04 01:07:24;;;;;;;;;;;;;;;3.20;86.89;100768.81;5033682;28;20014;-66
2023/03/04 01:09:49;;;;;;;;;;;;;;;3.19;86.91;100774.94;5032448;28;19928;-66
2023/03/04 01:12:14;;;;;;;;;;;;;;;3.14;87.25;100768.78;5035228;28;20283;-66
2023/03/04 01:14:39;;;;;;;;;;;;;;;3.13;87.96;100772.28;5038170;28;19913;-66
2023/03/04 01:17:05;;;;;;;;;;;;;;;3.08;87.35;100771.34;5037841;28;19924;-66
2023/03/04 01:19:30;;;;;;;;;;;;;;;3.05;88.25;100774.81;5022970;28;19917;-65
2023/03/04 01:21:55;;;;;;;;;;;;;;;3.03;88.46;100770.44;5016970;28;19980;-65
2023/03/04 01:24:20;;;;;;;;;;;;;;;3.02;88.54;100768.66;5018731;28;20365;-64
2023/03/04 01:26:46;;;;;;;;;;;;;;;2.98;89.29;100772.13;5034600;28;19932;-65
2023/03/04 01:29:11;;;;;;;;;;;;;;;2.99;89.82;100771.25;5035795;28;19917;-65
2023/03/04 01:31:36;;;;;;;;;;;;;;;3.01;90.02;100772.16;5037356;28;19917;-66
2023/03/04 01:34:02;;;;;;;;;;;;;;;3.02;89.17;100763.38;5041697;28;19928;-66
2023/03/04 01:36:27;;;;;;;;;;;;;;;2.97;90.07;100762.47;5040205;28;19924;-65
2023/03/04 01:38:52;;;;;;;;;;;;;;;2.98;90.00;100764.25;5040903;28;19940;-65
2023/03/04 01:41:21;;;;;;;;;;;;;;;2.95;90.35;100766.84;5040898;28;19928;-66
2023/03/04 01:43:46;;;;;;;;;;;;;;;2.93;89.97;100763.31;5036682;28;19918;-65
2023/03/04 01:46:13;;;;;;;;;;;;;;;2.94;90.13;100759.81;5022392;28;19917;-65
2023/03/04 01:48:40;;;;;;;;;;;;;;;2.89;90.95;100762.41;5031286;28;20695;-66
2023/03/04 01:51:06;;;;;;;;;;;;;;;2.87;90.59;100760.63;5020711;28;19914;-66
2023/03/04 01:53:32;;;;;;;;;;;;;;;2.86;90.60;100762.38;5016672;28;19921;-66
2023/03/04 01:56:00;;;;;;;;;;;;;;;2.86;90.75;100759.75;5041116;28;19971;-66
2023/03/04 01:58:28;;;;;;;;;;;;;;;2.86;92.04;100766.75;5040806;28;19919;-66
2023/03/04 02:00:53;;;;;;;;;;;;;;;2.84;91.52;100763.22;5036381;28;19924;-65
2023/03/04 02:03:19;;;;;;;;;;;;;;;2.84;92.24;100765.84;5033052;28;19925;-66
2023/03/04 02:05:47;;;;;;;;;;;;;;;2.83;91.80;100766.72;5018495;28;19917;-66
2023/03/04 02:08:13;;;;;;;;;;;;;;;2.79;92.34;100763.16;5036953;28;19932;-66
2023/03/04 02:10:39;;;;;;;;;;;;;;;2.80;92.21;100762.28;5019557;28;19918;-66
2023/03/04 02:13:05;;;;;;;;;;;;;;;2.77;91.97;100767.53;5026074;28;20380;-66
2023/03/04 02:15:30;;;;;;;;;;;;;;;2.72;92.34;100759.59;5033296;28;19921;-66
2023/03/04 02:17:55;;;;;;;;;;;;;;;2.72;92.72;100765.72;5025234;28;19921;-66
2023/03/04 02:20:35;;;;;;;;;;;;;;;2.70;92.30;100766.56;5036381;28;20420;-67
2023/03/04 02:23:03;;;;;;;;;;;;;;;2.72;92.24;100764.84;5036916;28;20391;-66
2023/03/04 02:25:38;;;;;;;;;;;;;;;2.67;92.42;100757.78;5032637;28;19994;-66
2023/03/04 02:28:03;;;;;;;;;;;;;;;2.66;93.25;100762.16;5030517;28;19932;-66
2023/03/04 02:30:29;;;;;;;;;;;;;;;2.62;92.33;100762.09;5036772;28;19925;-66
2023/03/04 02:32:54;;;;;;;;;;;;;;;2.61;92.23;100760.34;5020363;28;19971;-66
2023/03/04 02:35:20;;;;;;;;;;;;;;;2.59;92.89;100755.09;5033569;28;20000;-66
2023/03/04 02:37:45;;;;;;;;;;;;;;;2.53;92.71;100751.50;5026579;28;19921;-66
2023/03/04 02:40:17;;;;;;;;;;;;;;;2.47;92.26;100752.31;5039771;28;19947;-65
2023/03/04 02:42:44;;;;;;;;;;;;;;;2.45;93.47;100758.41;5038004;28;19921;-66
2023/03/04 02:45:28;;;;;;;;;;;;;;;2.42;92.50;100753.13;5038207;28;19921;-66
2023/03/04 02:47:53;;;;;;;;;;;;;;;2.39;93.74;100751.34;5018970;28;19921;-66
2023/03/04 02:50:18;;;;;;;;;;;;;;;2.35;93.94;100752.19;5038436;28;20559;-66
2023/03/04 02:52:44;;;;;;;;;;;;;;;2.33;93.93;100753.91;5040030;28;20007;-66
2023/03/04 02:55:09;;;;;;;;;;;;;;;2.30;93.22;100752.97;5038474;28;19921;-66
2023/03/04 02:57:34;;;;;;;;;;;;;;;2.28;94.21;100752.06;5038418;28;19917;-66
2023/03/04 02:59:59;;;;;;;;;;;;;;;2.22;93.81;100755.53;5034484;28;19980;-66
2023/03/04 03:02:25;;;;;;;;;;;;;;;2.19;93.78;100747.59;5033984;28;20006;-66
2023/03/04 03:04:51;;;;;;;;;;;;;;;2.20;95.01;100752.00;5034209;28;20304;-66
2023/03/04 03:07:16;;;;;;;;;;;;;;;2.19;94.41;100747.59;5030779;28;19925;-66
2023/03/04 03:09:41;;;;;;;;;;;;;;;2.16;95.11;100746.66;5033578;28;19925;-66
2023/03/04 03:12:06;;;;;;;;;;;;;;;2.15;95.25;100748.44;5032234;28;19920;-66
2023/03/04 03:14:32;;;;;;;;;;;;;;;2.13;95.27;100741.38;5020785;28;19918;-66
2023/03/04 03:16:57;;;;;;;;;;;;;;;2.10;94.32;100743.97;5021639;28;19956;-65
2023/03/04 03:19:23;;;;;;;;;;;;;;;2.04;94.90;100744.75;5033945;28;20296;-65
2023/03/04 03:21:49;;;;;;;;;;;;;;;2.02;94.97;100745.63;5035514;28;19917;-65
2023/03/04 03:24:14;;;;;;;;;;;;;;;1.94;95.67;100742.91;5034674;28;19916;-65
2023/03/04 03:26:39;;;;;;;;;;;;;;;1.92;94.86;100739.38;5035976;28;19972;-66
2023/03/04 03:29:05;;;;;;;;;;;;;;;1.90;95.80;100737.59;5036253;28;19990;-64
2023/03/04 03:31:30;;;;;;;;;;;;;;;1.88;96.28;100741.94;5033867;28;19917;-65
2023/03/04 03:33:55;;;;;;;;;;;;;;;1.86;96.24;100739.28;5036321;28;19913;-66
2023/03/04 03:36:20;;;;;;;;;;;;;;;1.86;96.43;100736.66;5031570;28;20689;-65
2023/03/04 03:38:46;;;;;;;;;;;;;;;1.85;96.78;100742.78;5033823;28;19944;-66
2023/03/04 03:41:11;;;;;;;;;;;;;;;1.82;96.45;100742.75;5034628;28;19921;-66
2023/03/04 03:43:36;;;;;;;;;;;;;;;1.81;96.67;100737.47;5035182;28;19917;-65
2023/03/04 03:46:02;;;;;;;;;;;;;;;1.81;96.01;100743.59;5034693;28;19917;-65
2023/03/04 03:48:27;;;;;;;;;;;;;;;1.79;96.98;100733.94;5030428;28;20254;-65
2023/03/04 03:50:52;;;;;;;;;;;;;;;1.77;96.46;100738.28;5016621;28;19913;-65
2023/03/04 03:53:17;;;;;;;;;;;;;;;1.73;97.04;100741.72;5037715;28;20327;-65
2023/03/04 03:55:43;;;;;;;;;;;;;;;1.70;96.53;100736.44;5032996;28;19917;-65
2023/03/04 03:58:08;;;;;;;;;;;;;;;1.69;97.04;100738.19;5033337;28;19917;-66
2023/03/04 04:00:33;;;;;;;;;;;;;;;1.67;97.80;100745.13;5033892;28;20031;-65
2023/03/04 04:02:59;;;;;;;;;;;;;;;1.67;97.11;100742.50;5032128;28;20333;-66
2023/03/04 04:05:25;;;;;;;;;;;;;;;1.67;98.01;100757.34;5027569;28;19975;-65
2023/03/04 04:07:50;;;;;;;;;;;;;;;1.65;97.48;100749.47;5037760;28;19921;-65
2023/03/04 04:10:16;;;;;;;;;;;;;;;1.64;97.98;100742.47;5038507;28;19967;-65
2023/03/04 04:12:41;;;;;;;;;;;;;;;1.64;97.51;100745.09;5035602;28;19929;-65
2023/03/04 04:15:07;;;;;;;;;;;;;;;1.62;98.66;100749.44;5022580;28;19917;-66
2023/03/04 04:17:32;;;;;;;;;;;;;;;1.64;98.03;100749.44;5036977;28;19924;-65
2023/03/04 04:19:57;;;;;;;;;;;;;;;1.64;98.21;100747.72;5035477;28;19917;-66
2023/03/04 04:22:22;;;;;;;;;;;;;;;1.63;98.16;100745.06;5036410;28;19921;-66
2023/03/04 04:24:48;;;;;;;;;;;;;;;1.62;98.90;100752.06;5018889;28;20261;-65
2023/03/04 04:27:13;;;;;;;;;;;;;;;1.61;98.37;100747.69;5035941;28;19931;-66
2023/03/04 04:29:39;;;;;;;;;;;;;;;1.61;100.00;100752.94;5036468;28;19932;-66
2023/03/04 04:32:04;;;;;;;;;;;;;;;1.61;99.31;100746.78;5037730;28;19917;-66
2023/03/04 04:34:29;;;;;;;;;;;;;;;1.58;99.66;100746.75;5036452;28;19917;-66
2023/03/04 04:36:55;;;;;;;;;;;;;;;1.57;99.72;100745.84;5037562;28;19920;-66
2023/03/04 04:39:20;;;;;;;;;;;;;;;1.54;100.00;100745.81;5037717;28;20004;-66
2023/03/04 04:41:45;;;;;;;;;;;;;;;1.52;99.09;100746.63;5036807;28;19924;-65
2023/03/04 04:44:12;;;;;;;;;;;;;;;1.53;98.97;100751.94;5031548;28;19921;-66
2023/03/04 04:46:38;;;;;;;;;;;;;;;1.49;98.89;100755.34;5018720;28;19960;-66
2023/03/04 04:49:03;;;;;;;;;;;;;;;1.49;99.77;100760.59;5033753;28;19924;-67
2023/03/04 04:51:33;;;;;;;;;;;;;;;1.44;100.00;100751.78;5037928;28;20019;-66
2023/03/04 04:53:59;;;;;;;;;;;;;;;1.47;99.95;100759.69;5033340;28;20014;-66
2023/03/04 04:56:25;;;;;;;;;;;;;;;1.49;99.77;100757.97;5032405;28;20332;-66
2023/03/04 04:58:51;;;;;;;;;;;;;;;1.49;100.00;100757.06;5031174;28;19924;-66
2023/03/04 05:01:17;;;;;;;;;;;;;;;1.48;100.00;100756.22;5030545;28;19917;-66
2023/03/04 05:03:42;;;;;;;;;;;;;;;1.46;100.00;100760.56;5031511;28;20396;-66
2023/03/04 05:06:08;;;;;;;;;;;;;;;1.51;100.00;100756.25;5032086;28;20132;-66
2023/03/04 05:08:34;;;;;;;;;;;;;;;1.51;100.00;100751.03;5032359;28;19925;-66
2023/03/04 05:11:00;;;;;;;;;;;;;;;1.49;100.00;100755.34;5032021;28;19932;-66
2023/03/04 05:13:25;;;;;;;;;;;;;;;1.48;100.00;100757.94;5029771;28;19917;-67
2023/03/04 05:15:53;;;;;;;;;;;;;;;1.45;100.00;100760.53;5017717;28;20570;-66
2023/03/04 05:18:19;;;;;;;;;;;;;;;1.43;100.00;100760.50;5028239;28;19941;-67
2023/03/04 05:20:44;;;;;;;;;;;;;;;1.40;100.00;100762.19;5038208;28;19917;-67
2023/03/04 05:23:09;;;;;;;;;;;;;;;1.39;100.00;100763.94;5037696;28;19926;-67
2023/03/04 05:25:35;;;;;;;;;;;;;;;1.37;100.00;100751.66;5031855;28;19963;-66
2023/03/04 05:28:01;;;;;;;;;;;;;;;1.37;100.00;100770.88;5029741;28;19953;-66
2023/03/04 05:30:26;;;;;;;;;;;;;;;1.34;100.00;100766.47;5037330;28;19913;-67
2023/03/04 05:32:51;;;;;;;;;;;;;;;1.30;100.00;100766.41;5034472;28;19968;-67
2023/03/04 05:35:17;;;;;;;;;;;;;;;1.27;100.00;100768.97;5035423;28;19914;-66
2023/03/04 05:37:42;;;;;;;;;;;;;;;1.21;100.00;100776.72;5032554;28;20369;-66
2023/03/04 05:40:08;;;;;;;;;;;;;;;1.17;100.00;100778.41;5030166;28;20381;-66
2023/03/04 05:42:33;;;;;;;;;;;;;;;1.13;100.00;100780.97;5030274;28;19917;-65
2023/03/04 05:44:58;;;;;;;;;;;;;;;1.11;100.00;100782.66;5023289;28;19924;-66
2023/03/04 05:47:23;;;;;;;;;;;;;;;1.08;100.00;100780.00;5029434;28;19982;-66
2023/03/04 05:49:49;;;;;;;;;;;;;;;1.06;100.00;100789.56;5029569;28;19921;-65
2023/03/04 05:52:14;;;;;;;;;;;;;;;1.04;100.00;100793.88;5030379;28;19913;-65
2023/03/04 05:54:39;;;;;;;;;;;;;;;1.02;100.00;100793.00;5024507;28;20541;-66
2023/03/04 05:57:04;;;;;;;;;;;;;;;0.95;100.00;100793.72;5009946;28;19913;-66
2023/03/04 05:59:30;;;;;;;;;;;;;;;0.90;100.00;100800.63;5014209;28;19917;-66
2023/03/04 06:01:55;;;;;;;;;;;;;;;0.86;100.00;100798.78;5034169;28;19913;-66
2023/03/04 06:04:20;;;;;;;;;;;;;;;0.81;100.00;100810.91;5034808;28;19917;-65
2023/03/04 06:06:46;;;;;;;;;;;;;;;0.80;100.00;100819.63;5025683;28;20041;-66
2023/03/04 06:09:12;;;;;;;;;;;;;;;0.77;100.00;100824.81;4991045;28;19933;-66
2023/03/04 06:11:38;;;;;;;;;;;;;;;0.72;100.00;100816.88;4995701;28;20337;-64
2023/03/04 06:14:03;;;;;;;;;;;;;;;0.74;100.00;100830.00;5007124;28;20028;-65
2023/03/04 06:16:28;;;;;;;;;;;;;;;0.74;100.00;100828.22;4998130;28;19961;-64
2023/03/04 06:18:54;;;;;;;;;;;;;;;0.73;100.00;100828.22;5012080;28;19925;-65
2023/03/04 06:21:19;;;;;;;;;;;;;;;0.71;100.00;100830.78;5013244;28;19922;-65
2023/03/04 06:23:45;;;;;;;;;;;;;;;0.78;100.00;100840.53;5012455;28;19929;-65
2023/03/04 06:26:14;;;;;;;;;;;;;;;0.85;100.00;100834.59;5012347;28;19925;-65
2023/03/04 06:28:39;;;;;;;;;;;;;;;0.87;100.00;100832.84;5010287;28;19934;-66
2023/03/04 06:31:05;;;;;;;;;;;;;;;0.93;100.00;100840.84;5013000;28;19921;-65
2023/03/04 06:33:30;;;;;;;;;;;;;;;1.04;100.00;100835.78;5012911;28;19917;-65
2023/03/04 06:35:56;;;;;;;;;;;;;;;1.12;100.00;100835.06;5011887;28;20552;-66
2023/03/04 06:38:21;;;;;;;;;;;;;;;1.21;100.00;100829.13;5012515;28;19917;-65
2023/03/04 06:40:46;;;;;;;;;;;;;;;1.31;100.00;100824.09;5012020;28;19913;-65
2023/03/04 06:43:11;;;;;;;;;;;;;;;1.41;100.00;100827.72;5012345;28;20344;-65
2023/03/04 06:45:37;;;;;;;;;;;;;;;1.52;100.00;100826.16;5011641;28;19924;-65
2023/03/04 06:48:03;;;;;;;;;;;;;;;1.62;100.00;100822.84;5012789;28;19921;-65
2023/03/04 06:50:28;;;;;;;;;;;;;;;1.71;100.00;100828.25;5011837;28;20393;-65
2023/03/04 06:52:55;;;;;;;;;;;;;;;1.78;100.00;100827.44;5012473;28;20464;-65
2023/03/04 06:55:20;;;;;;;;;;;;;;;1.94;100.00;100825.97;5012062;28;20007;-65
2023/03/04 06:57:45;;;;;;;;;;;;;;;2.11;100.00;100830.56;5011626;28;20016;-66
2023/03/04 07:00:11;;;;;;;;;;;;;;;2.24;100.00;100831.66;5012194;28;19921;-66
2023/03/04 07:02:36;;;;;;;;;;;;;;;2.43;100.00;100824.03;5010004;28;19929;-66
2023/03/04 07:05:01;;;;;;;;;;;;;;;2.61;100.00;100831.25;5012403;28;19924;-65
2023/03/04 07:07:27;;;;;;;;;;;;;;;2.84;100.00;100836.75;5011508;28;19921;-66
2023/03/04 07:09:52;;;;;;;;;;;;;;;2.93;100.00;100831.63;5027687;28;20285;-65
2023/03/04 07:12:17;;;;;;;;;;;;;;;3.56;100.00;100838.38;5031128;28;19924;-65
2023/03/04 07:14:43;;;;;;;;;;;;;;;5.13;100.00;100840.13;5027637;28;19996;-66
2023/03/04 07:17:08;;;;;;;;;;;;;;;6.83;95.24;100840.88;5021827;28;19923;-65
2023/03/04 07:19:33;;;;;;;;;;;;;;;8.17;84.52;100842.56;5031557;28;19983;-65
2023/03/04 07:21:58;;;;;;;;;;;;;;;9.18;74.74;100834.28;5031650;28;20324;-65
2023/03/04 07:24:24;;;;;;;;;;;;;;;10.11;66.66;100832.84;5030772;28;19992;-64
2023/03/04 07:26:49;;;;;;;;;;;;;;;10.47;58.60;100848.13;5028617;28;19983;-65
2023/03/04 07:29:14;;;;;;;;;;;;;;;10.67;55.33;100846.84;5031325;28;19928;-65
2023/03/04 07:31:39;;;;;;;;;;;;;;;10.94;54.15;100848.97;5017904;28;20406;-66
2023/03/04 07:34:06;;;;;;;;;;;;;;;11.24;52.24;100848.28;5011752;28;19914;-65
2023/03/04 07:36:32;;;;;;;;;;;;;;;11.56;51.71;100851.09;5030859;28;20007;-65
2023/03/04 07:38:57;;;;;;;;;;;;;;;12.03;50.20;100857.97;5030514;28;20438;-65
2023/03/04 07:41:24;;;;;;;;;;;;;;;12.14;48.93;100855.94;5029861;28;20012;-65
2023/03/04 07:43:50;;;;;;;;;;;;;;;12.36;49.12;100859.78;5025987;28;20226;-65
2023/03/04 07:46:15;;;;;;;;;;;;;;;12.89;47.96;100857.41;5011123;28;19972;-65
2023/03/04 07:48:41;;;;;;;;;;;;;;;12.83;46.86;100865.56;5029974;28;20610;-65
2023/03/04 07:51:11;;;;;;;;;;;;;;;13.10;47.21;100862.16;5030423;28;19967;-65
2023/03/04 07:53:37;;;;;;;;;;;;;;;13.36;46.44;100860.50;5030346;28;19960;-66
2023/03/04 07:56:03;;;;;;;;;;;;;;;13.59;45.10;100863.34;5030858;28;19913;-65
2023/03/04 07:58:28;;;;;;;;;;;;;;;13.47;45.05;100863.72;5023316;28;19956;-66
2023/03/04 08:00:54;;;;;;;;;;;;;;;13.37;45.45;100857.78;5021529;28;20624;-65
2023/03/04 08:03:19;;;;;;;;;;;;;;;13.29;45.95;100873.16;5010641;28;19918;-65
2023/03/04 08:05:44;;;;;;;;;;;;;;;13.49;46.11;100864.53;5018723;28;19917;-66
2023/03/04 08:08:09;;;;;;;;;;;;;;;13.64;45.66;100867.59;5026044;28;19921;-66
2023/03/04 08:10:35;;;;;;;;;;;;;;;13.37;46.19;100872.94;5029977;28;19917;-65
2023/03/04 08:13:00;;;;;;;;;;;;;;;13.08;46.82;100869.31;5030141;28;19917;-66
2023/03/04 08:15:26;;;;;;;;;;;;;;;13.58;46.09;100873.16;5013299;28;19917;-65
2023/03/04 08:17:51;;;;;;;;;;;;;;;13.08;46.51;100872.00;5030303;28;19917;-65
2023/03/04 08:20:17;;;;;;;;;;;;;;;12.98;47.65;100881.16;5030839;28;20383;-65
2023/03/04 08:22:42;;;;;;;;;;;;;;;12.51;47.64;100883.38;5001123;28;19929;-66
2023/03/04 08:25:07;;;;;;;;;;;;;;;12.65;47.62;100887.44;5024224;28;20005;-66
2023/03/04 08:27:33;;;;;;;;;;;;;;;12.21;49.41;100882.38;5030666;28;20384;-65
2023/03/04 08:29:58;;;;;;;;;;;;;;;12.24;49.42;100886.78;5029900;28;19921;-66
2023/03/04 08:32:23;;;;;;;;;;;;;;;12.08;50.13;100894.28;5012890;28;19920;-65
2023/03/04 08:34:48;;;;;;;;;;;;;;;11.44;50.85;100894.88;5030850;28;19920;-66
2023/03/04 08:37:14;;;;;;;;;;;;;;;10.84;51.60;100895.28;5030347;28;19917;-65
2023/03/04 08:39:39;;;;;;;;;;;;;;;10.79;52.49;100891.84;5030164;28;19944;-66
2023/03/04 08:42:04;;;;;;;;;;;;;;;11.14;53.07;100897.31;5029826;28;19923;-65
2023/03/04 08:44:29;;;;;;;;;;;;;;;11.80;50.88;100890.53;5020636;28;19932;-65
2023/03/04 08:46:55;;;;;;;;;;;;;;;11.87;50.92;100889.47;5009968;28;19913;-65
2023/03/04 08:49:20;;;;;;;;;;;;;;;12.00;50.56;100896.25;5028206;28;20361;-65
2023/03/04 08:51:45;;;;;;;;;;;;;;;12.81;48.41;100893.25;5029683;28;19929;-65
2023/03/04 08:54:11;;;;;;;;;;;;;;;13.51;48.20;100889.44;5027978;28;19917;-65
2023/03/04 08:56:36;;;;;;;;;;;;;;;14.05;46.77;100887.69;5029415;28;20023;-65
2023/03/04 08:59:01;;;;;;;;;;;;;;;13.76;46.00;100887.72;5029317;28;19995;-65
2023/03/04 09:01:27;;;;;;;;;;;;;;;13.84;44.75;100891.91;5028858;28;20016;-65
2023/03/04 09:03:52;;;;;;;;;;;;;;;14.05;45.10;100885.84;5030248;28;19924;-65
2023/03/04 09:06:18;;;;;;;;;;;;;;;14.38;44.51;100889.28;5029740;28;19990;-65
2023/03/04 09:08:44;;;;;;;;;;;;;;;14.64;42.79;100883.88;5029928;28;19932;-65
2023/03/04 09:11:09;;;;;;;;;;;;;;;14.99;43.31;100883.47;5030215;28;19921;-65
2023/03/04 09:13:35;;;;;;;;;;;;;;;14.89;42.42;100881.19;5027984;28;20353;-65
2023/03/04 09:16:00;;;;;;;;;;;;;;;15.03;42.66;100885.09;5011962;28;19917;-65
2023/03/04 09:18:26;;;;;;;;;;;;;;;13.93;41.76;100890.75;5011005;28;19925;-64
2023/03/04 09:20:51;;;;;;;;;;;;;;;13.58;43.71;100888.28;4996696;28;19944;-65
2023/03/04 09:23:17;;;;;;;;;;;;;;;12.91;43.67;100900.97;5010605;28;19920;-65
2023/03/04 09:25:45;;;;;;;;;;;;;;;12.27;45.12;100892.94;5029128;28;19955;-66
2023/03/04 09:28:11;;;;;;;;;;;;;;;11.68;46.66;100897.03;5029736;28;19923;-65
2023/03/04 09:30:36;;;;;;;;;;;;;;;11.69;47.23;100887.25;5010037;28;20273;-65
2023/03/04 09:33:02;;;;;;;;;;;;;;;11.60;46.98;100896.28;5028164;28;19925;-66
2023/03/04 09:35:28;;;;;;;;;;;;;;;12.02;46.62;100893.56;5032146;28;19991;-65
2023/03/04 09:37:54;;;;;;;;;;;;;;;12.83;46.55;100896.75;5033616;28;19913;-65
2023/03/04 09:40:20;;;;;;;;;;;;;;;12.67;44.67;100892.72;5033359;28;19983;-65
2023/03/04 09:42:47;;;;;;;;;;;;;;;12.75;44.94;100896.94;5032436;28;19928;-66
2023/03/04 09:45:16;;;;;;;;;;;;;;;12.88;44.73;100900.16;5031444;28;20726;-66
2023/03/04 09:47:42;;;;;;;;;;;;;;;12.79;45.92;100901.28;5033086;28;19921;-65
2023/03/04 09:50:09;;;;;;;;;;;;;;;12.97;45.11;100900.78;5033579;28;20025;-66
2023/03/04 09:52:55;;;;;;;;;;;;;;;12.92;45.38;100900.03;5032743;28;20544;-66
2023/03/04 09:55:27;;;;;;;;;;;;;;;12.18;45.21;100894.91;5013700;28;19968;-66
2023/03/04 09:57:56;;;;;;;;;;;;;;;11.92;47.06;100908.91;5008331;28;19925;-66
2023/03/04 10:00:23;;;;;;;;;;;;;;;11.71;47.68;100909.41;5032737;28;19928;-66
2023/03/04 10:03:08;;;;;;;;;;;;;;;11.34;47.89;100904.00;5032834;28;19964;-70
2023/03/04 10:05:38;;;;;;;;;;;;;;;11.21;49.19;100905.16;5028552;28;20337;-66
2023/03/04 10:08:29;;;;;;;;;;;;;;;10.93;49.89;100901.31;5032223;28;20644;-66
2023/03/04 10:10:57;;;;;;;;;;;;;;;10.97;48.24;100904.78;5005092;28;19925;-66
2023/03/04 10:13:30;;;;;;;;;;;;;;;10.97;49.48;100910.97;5032235;28;19913;-65
2023/03/04 10:15:57;;;;;;;;;;;;;;;11.14;49.65;100900.88;5032901;28;19924;-66
2023/03/04 10:18:26;;;;;;;;;;;;;;;11.56;49.62;100891.06;5031784;28;19979;-66
2023/03/04 10:20:51;;;;;;;;;;;;;;;12.41;47.36;100890.75;5032486;28;19999;-66
2023/03/04 10:23:18;;;;;;;;;;;;;;;12.99;45.96;100888.25;5011350;28;20384;-66
2023/03/04 10:25:45;;;;;;;;;;;;;;;13.89;45.91;100886.41;5032656;28;19916;-67
2023/03/04 10:28:15;;;;;;;;;;;;;;;14.91;42.77;100874.84;5034218;28;19941;-67
2023/03/04 10:31:01;;;;;;;;;;;;;;;15.55;41.47;100879.53;5032367;28;19928;-67
2023/03/04 10:33:31;;;;;;;;;;;;;;;15.77;41.69;100877.78;5031175;28;19917;-66
2023/03/04 10:36:01;;;;;;;;;;;;;;;16.01;39.53;100881.28;5030413;28;20001;-67
2023/03/04 10:38:34;;;;;;;;;;;;;;;14.79;40.63;100888.69;5012409;28;20309;-66
2023/03/04 10:41:00;;;;;;;;;;;;;;;13.77;41.27;100887.66;5028467;28;19917;-66
2023/03/04 10:43:25;;;;;;;;;;;;;;;13.20;43.11;100876.97;5029625;28;19996;-66
2023/03/04 10:45:56;;;;;;;;;;;;;;;13.40;44.09;100876.38;5029651;28;19925;-66
2023/03/04 10:48:22;;;;;;;;;;;;;;;13.14;45.39;100879.84;5026982;28;20039;-66
2023/03/04 10:50:47;;;;;;;;;;;;;;;13.10;45.41;100880.84;5031954;28;20471;-66
2023/03/04 10:53:36;;;;;;;;;;;;;;;12.74;44.59;100884.53;5021164;28;20079;-66
2023/03/04 10:56:02;;;;;;;;;;;;;;;13.59;44.42;100879.38;5030110;28;20269;-67
2023/03/04 10:58:27;;;;;;;;;;;;;;;13.95;42.75;100880.88;5029999;28;19921;-67
2023/03/04 11:01:04;;;;;;;;;;;;;;;13.97;42.70;100879.03;5031690;28;19982;-67
2023/03/04 11:03:31;;;;;;;;;;;;;;;14.72;42.62;100873.75;5027544;28;19917;-67
2023/03/04 11:06:16;;;;;;;;;;;;;;;15.02;41.18;100869.97;5030048;28;19917;-66
2023/03/04 11:08:42;;;;;;;;;;;;;;;15.28;41.22;100871.66;5028553;28;19921;-67
2023/03/04 11:11:24;;;;;;;;;;;;;;;15.52;40.39;100868.94;5029954;28;19924;-67
2023/03/04 11:13:52;;;;;;;;;;;;;;;15.40;40.21;100869.41;5030723;28;20056;-67
2023/03/04 11:16:28;;;;;;;;;;;;;;;15.08;39.69;100861.69;5016563;28;20573;-67
2023/03/04 11:18:56;;;;;;;;;;;;;;;15.33;40.15;100859.84;5029872;28;19927;-67
2023/03/04 11:21:33;;;;;;;;;;;;;;;15.93;38.29;100847.63;5020248;28;19918;-67
2023/03/04 11:24:11;;;;;;;;;;;;;;;16.49;37.69;100854.22;5028976;28;19956;-66
2023/03/04 11:26:36;;;;;;;;;;;;;;;17.01;38.38;100840.19;5029308;28;19925;-66
2023/03/04 11:29:23;;;;;;;;;;;;;;;17.18;37.16;100843.00;5026648;28;20403;-67
2023/03/04 11:32:03;;;;;;;;;;;;;;;17.42;37.20;100844.50;5028114;28;20366;-67
2023/03/04 11:34:46;;;;;;;;;;;;;;;16.44;36.83;100845.44;5029453;28;19928;-66
2023/03/04 11:37:14;;;;;;;;;;;;;;;15.64;37.73;100836.28;5030478;28;19917;-66
2023/03/04 11:39:45;;;;;;;;;;;;;;;14.60;39.28;100836.69;5028213;28;19936;-66
2023/03/04 11:42:16;;;;;;;;;;;;;;;14.27;40.38;100836.09;5028124;28;19948;-65
2023/03/04 11:44:41;;;;;;;;;;;;;;;14.35;42.01;100841.16;5018785;28;20016;-67
2023/03/04 11:47:06;;;;;;;;;;;;;;;13.89;40.40;100831.13;5023028;28;20483;-66
2023/03/04 11:49:38;;;;;;;;;;;;;;;13.92;41.00;100830.16;5029265;28;19928;-66
2023/03/04 11:52:21;;;;;;;;;;;;;;;13.82;42.26;100834.06;5029393;28;19921;-66
2023/03/04 11:55:06;;;;;;;;;;;;;;;13.95;41.13;100830.91;5009089;28;19921;-66
2023/03/04 11:57:44;;;;;;;;;;;;;;;14.03;43.19;100818.19;5029496;28;19917;-66
2023/03/04 12:00:12;;;;;;;;;;;;;;;13.67;41.21;100816.72;5030268;28;20308;-66
2023/03/04 12:02:45;;;;;;;;;;;;;;;13.15;42.37;100813.91;5022973;28;19995;-66
2023/03/04 12:05:22;;;;;;;;;;;;;;;12.72;43.97;100814.28;5024207;28;19921;-65
2023/03/04 12:07:47;;;;;;;;;;;;;;;12.54;43.71;100816.56;5026440;28;19917;-65
2023/03/04 12:10:25;;;;;;;;;;;;;;;12.42;43.88;100812.47;5015247;28;19935;-65
2023/03/04 12:13:10;;;;;;;;;;;;;;;12.24;44.51;100810.28;5024337;28;19925;-65
2023/03/04 12:15:39;;;;;;;;;;;;;;;12.00;45.02;100804.72;5010468;28;19918;-65
2023/03/04 12:18:19;;;;;;;;;;;;;;;11.97;45.44;100805.69;5028019;28;19917;-65
2023/03/04 12:20:59;;;;;;;;;;;;;;;11.80;43.45;100797.25;5030072;28;20391;-65
2023/03/04 12:23:27;;;;;;;;;;;;;;;11.25;46.44;100794.13;5029369;28;19963;-65
2023/03/04 12:26:00;;;;;;;;;;;;;;;11.35;46.93;100793.84;5029428;28;19928;-65
2023/03/04 12:28:29;;;;;;;;;;;;;;;11.07;46.57;100786.56;5030175;28;20278;-66
2023/03/04 12:30:54;;;;;;;;;;;;;;;10.90;45.82;100784.25;5029454;28;19925;-65
2023/03/04 12:33:19;;;;;;;;;;;;;;;10.89;47.07;100781.63;5030693;28;19936;-65
2023/03/04 12:36:00;;;;;;;;;;;;;;;10.95;48.46;100782.38;5028934;28;19917;-66
2023/03/04 12:38:42;;;;;;;;;;;;;;;10.33;46.86;100775.69;5029375;28;19936;-66
2023/03/04 12:41:20;;;;;;;;;;;;;;;10.38;48.08;100773.81;5027030;28;19931;-65